sensor_id;sensor_type;location;lat;lon;timestamp;temperature;humidity
17659;DHT22;8948;51.534;8.262;2022-07-29T00:02:34;20.60;48.00
17659;DHT22;8948;51.534;8.262;2022-07-29T00:07:35;20.60;48.60
17659;DHT22;8948;51.534;8.262;2022-07-29T00:12:36;20.50;49.10
17659;DHT22;8948;51.534;8.262;2022-07-29T00:17:36;20.40;48.50
17659;DHT22;8948;51.534;8.262;2022-07-29T00:22:38;20.50;48.70
17659;DHT22;8948;51.534;8.262;2022-07-29T00:27:39;20.50;48.80
17659;DHT22;8948;51.534;8.262;2022-07-29T00:32:39;20.40;48.70
17659;DHT22;8948;51.534;8.262;2022-07-29T00:37:40;20.40;47.60
17659;DHT22;8948;51.534;8.262;2022-07-29T00:42:45;20.40;48.00
17659;DHT22;8948;51.534;8.262;2022-07-29T00:47:46;20.40;47.50
17659;DHT22;8948;51.534;8.262;2022-07-29T00:52:47;20.40;46.50
17659;DHT22;8948;51.534;8.262;2022-07-29T00:57:48;20.30;45.70
17659;DHT22;8948;51.534;8.262;2022-07-29T01:02:49;20.40;45.50
17659;DHT22;8948;51.534;8.262;2022-07-29T01:07:53;20.40;45.60
17659;DHT22;8948;51.534;8.262;2022-07-29T01:12:55;20.30;45.60
17659;DHT22;8948;51.534;8.262;2022-07-29T01:18:20;20.30;46.40
17659;DHT22;8948;51.534;8.262;2022-07-29T01:28:44;20.00;46.40
17659;DHT22;8948;51.534;8.262;2022-07-29T01:33:57;20.00;46.60
17659;DHT22;8948;51.534;8.262;2022-07-29T01:39:34;20.00;44.90
17659;DHT22;8948;51.534;8.262;2022-07-29T01:44:33;20.00;45.80
17659;DHT22;8948;51.534;8.262;2022-07-29T01:49:36;20.00;45.90
17659;DHT22;8948;51.534;8.262;2022-07-29T01:55:01;19.90;45.20
17659;DHT22;8948;51.534;8.262;2022-07-29T02:00:04;20.00;45.20
17659;DHT22;8948;51.534;8.262;2022-07-29T02:05:09;19.90;45.00
17659;DHT22;8948;51.534;8.262;2022-07-29T02:10:11;19.80;45.00
17659;DHT22;8948;51.534;8.262;2022-07-29T02:15:14;19.90;44.80
17659;DHT22;8948;51.534;8.262;2022-07-29T02:20:16;19.90;44.80
17659;DHT22;8948;51.534;8.262;2022-07-29T02:25:17;19.90;45.30
17659;DHT22;8948;51.534;8.262;2022-07-29T02:30:19;19.90;45.00
17659;DHT22;8948;51.534;8.262;2022-07-29T02:35:21;19.80;45.30
17659;DHT22;8948;51.534;8.262;2022-07-29T02:40:23;19.60;45.40
17659;DHT22;8948;51.534;8.262;2022-07-29T02:45:23;19.50;45.70
17659;DHT22;8948;51.534;8.262;2022-07-29T02:50:33;19.60;45.50
17659;DHT22;8948;51.534;8.262;2022-07-29T02:55:43;19.50;45.70
17659;DHT22;8948;51.534;8.262;2022-07-29T03:00:46;19.50;45.60
17659;DHT22;8948;51.534;8.262;2022-07-29T03:05:48;19.60;45.10
17659;DHT22;8948;51.534;8.262;2022-07-29T03:10:48;19.50;45.40
17659;DHT22;8948;51.534;8.262;2022-07-29T03:15:50;19.40;45.50
17659;DHT22;8948;51.534;8.262;2022-07-29T03:20:52;19.40;45.40
17659;DHT22;8948;51.534;8.262;2022-07-29T03:25:53;19.40;46.10
17659;DHT22;8948;51.534;8.262;2022-07-29T03:30:54;19.70;49.30
17659;DHT22;8948;51.534;8.262;2022-07-29T03:35:54;19.80;48.20
17659;DHT22;8948;51.534;8.262;2022-07-29T03:41:02;20.10;49.20
17659;DHT22;8948;51.534;8.262;2022-07-29T03:46:06;20.30;50.30
17659;DHT22;8948;51.534;8.262;2022-07-29T03:51:08;20.30;47.80
17659;DHT22;8948;51.534;8.262;2022-07-29T03:56:10;20.20;49.20
17659;DHT22;8948;51.534;8.262;2022-07-29T04:01:15;20.30;49.50
17659;DHT22;8948;51.534;8.262;2022-07-29T04:06:17;20.30;49.80
17659;DHT22;8948;51.534;8.262;2022-07-29T04:11:18;20.40;49.80
17659;DHT22;8948;51.534;8.262;2022-07-29T04:16:19;20.50;50.20
17659;DHT22;8948;51.534;8.262;2022-07-29T04:21:20;20.40;47.70
17659;DHT22;8948;51.534;8.262;2022-07-29T04:26:20;20.10;48.80
17659;DHT22;8948;51.534;8.262;2022-07-29T04:31:21;20.00;49.30
17659;DHT22;8948;51.534;8.262;2022-07-29T04:36:21;19.80;48.90
17659;DHT22;8948;51.534;8.262;2022-07-29T04:41:22;19.70;49.50
17659;DHT22;8948;51.534;8.262;2022-07-29T04:46:23;19.60;50.00
17659;DHT22;8948;51.534;8.262;2022-07-29T04:51:23;19.60;49.80
17659;DHT22;8948;51.534;8.262;2022-07-29T04:56:24;19.60;49.70
17659;DHT22;8948;51.534;8.262;2022-07-29T05:01:24;19.50;49.60
17659;DHT22;8948;51.534;8.262;2022-07-29T05:06:25;19.50;49.90
17659;DHT22;8948;51.534;8.262;2022-07-29T05:11:26;19.40;50.20
17659;DHT22;8948;51.534;8.262;2022-07-29T05:16:26;19.50;50.70
17659;DHT22;8948;51.534;8.262;2022-07-29T05:21:27;19.60;49.50
17659;DHT22;8948;51.534;8.262;2022-07-29T05:26:28;19.60;49.30
17659;DHT22;8948;51.534;8.262;2022-07-29T05:31:29;19.70;49.80
17659;DHT22;8948;51.534;8.262;2022-07-29T05:36:29;19.90;49.80
17659;DHT22;8948;51.534;8.262;2022-07-29T05:41:33;20.00;50.90
17659;DHT22;8948;51.534;8.262;2022-07-29T05:46:33;20.00;50.50
17659;DHT22;8948;51.534;8.262;2022-07-29T05:51:34;20.00;50.60
17659;DHT22;8948;51.534;8.262;2022-07-29T05:56:36;20.10;49.70
17659;DHT22;8948;51.534;8.262;2022-07-29T06:01:37;20.20;50.40
17659;DHT22;8948;51.534;8.262;2022-07-29T06:06:39;20.30;50.80
17659;DHT22;8948;51.534;8.262;2022-07-29T06:11:40;20.30;50.30
17659;DHT22;8948;51.534;8.262;2022-07-29T06:16:41;20.40;51.30
17659;DHT22;8948;51.534;8.262;2022-07-29T06:21:43;20.50;51.10
17659;DHT22;8948;51.534;8.262;2022-07-29T06:26:43;20.60;51.40
17659;DHT22;8948;51.534;8.262;2022-07-29T06:31:44;20.80;50.60
17659;DHT22;8948;51.534;8.262;2022-07-29T06:36:45;20.70;49.70
17659;DHT22;8948;51.534;8.262;2022-07-29T06:41:48;20.60;50.60
17659;DHT22;8948;51.534;8.262;2022-07-29T06:46:49;20.50;49.80
17659;DHT22;8948;51.534;8.262;2022-07-29T06:51:52;20.60;49.60
17659;DHT22;8948;51.534;8.262;2022-07-29T06:56:53;20.90;49.80
17659;DHT22;8948;51.534;8.262;2022-07-29T07:01:53;20.90;48.90
17659;DHT22;8948;51.534;8.262;2022-07-29T07:06:54;21.00;48.50
17659;DHT22;8948;51.534;8.262;2022-07-29T07:11:55;21.10;49.40
17659;DHT22;8948;51.534;8.262;2022-07-29T07:16:56;21.10;48.70
17659;DHT22;8948;51.534;8.262;2022-07-29T07:21:57;21.00;48.60
17659;DHT22;8948;51.534;8.262;2022-07-29T07:26:57;21.00;48.60
17659;DHT22;8948;51.534;8.262;2022-07-29T07:31:58;21.10;48.90
17659;DHT22;8948;51.534;8.262;2022-07-29T07:36:59;21.20;48.60
17659;DHT22;8948;51.534;8.262;2022-07-29T07:41:59;21.20;48.90
17659;DHT22;8948;51.534;8.262;2022-07-29T07:47:00;21.40;49.00
17659;DHT22;8948;51.534;8.262;2022-07-29T07:52:00;21.50;48.60
17659;DHT22;8948;51.534;8.262;2022-07-29T07:57:01;21.80;49.10
17659;DHT22;8948;51.534;8.262;2022-07-29T08:02:02;22.10;47.50
17659;DHT22;8948;51.534;8.262;2022-07-29T08:07:02;22.70;46.50
17659;DHT22;8948;51.534;8.262;2022-07-29T08:12:03;22.90;45.20
17659;DHT22;8948;51.534;8.262;2022-07-29T08:17:05;23.20;44.60
17659;DHT22;8948;51.534;8.262;2022-07-29T08:22:06;23.50;43.30
17659;DHT22;8948;51.534;8.262;2022-07-29T08:27:07;23.10;43.90
17659;DHT22;8948;51.534;8.262;2022-07-29T08:32:07;22.90;45.20
17659;DHT22;8948;51.534;8.262;2022-07-29T08:37:08;23.00;44.40
17659;DHT22;8948;51.534;8.262;2022-07-29T08:42:10;23.10;43.80
17659;DHT22;8948;51.534;8.262;2022-07-29T08:47:14;23.40;43.70
17659;DHT22;8948;51.534;8.262;2022-07-29T08:52:15;23.80;44.00
17659;DHT22;8948;51.534;8.262;2022-07-29T08:57:16;23.90;43.00
17659;DHT22;8948;51.534;8.262;2022-07-29T09:02:21;24.70;42.20
17659;DHT22;8948;51.534;8.262;2022-07-29T09:07:22;24.90;42.10
17659;DHT22;8948;51.534;8.262;2022-07-29T09:12:23;24.90;43.20
17659;DHT22;8948;51.534;8.262;2022-07-29T09:17:48;25.80;40.70
17659;DHT22;8948;51.534;8.262;2022-07-29T09:22:51;26.20;40.60
17659;DHT22;8948;51.534;8.262;2022-07-29T09:27:53;25.80;41.50
17659;DHT22;8948;51.534;8.262;2022-07-29T09:32:55;25.80;41.80
17659;DHT22;8948;51.534;8.262;2022-07-29T09:37:57;25.90;41.40
17659;DHT22;8948;51.534;8.262;2022-07-29T09:43:09;26.90;41.10
17659;DHT22;8948;51.534;8.262;2022-07-29T09:48:15;27.10;39.00
17659;DHT22;8948;51.534;8.262;2022-07-29T09:53:32;27.40;38.90
17659;DHT22;8948;51.534;8.262;2022-07-29T09:58:33;27.00;40.20
17659;DHT22;8948;51.534;8.262;2022-07-29T10:03:51;27.40;39.50
17659;DHT22;8948;51.534;8.262;2022-07-29T10:08:52;27.60;37.90
17659;DHT22;8948;51.534;8.262;2022-07-29T10:13:53;27.20;38.70
17659;DHT22;8948;51.534;8.262;2022-07-29T10:18:53;27.20;38.80
17659;DHT22;8948;51.534;8.262;2022-07-29T10:23:54;27.20;39.80
17659;DHT22;8948;51.534;8.262;2022-07-29T10:28:55;27.90;39.00
17659;DHT22;8948;51.534;8.262;2022-07-29T10:34:11;28.80;36.30
17659;DHT22;8948;51.534;8.262;2022-07-29T10:44:41;30.00;35.70
17659;DHT22;8948;51.534;8.262;2022-07-29T10:49:58;29.70;35.30
17659;DHT22;8948;51.534;8.262;2022-07-29T10:54:59;29.30;35.90
17659;DHT22;8948;51.534;8.262;2022-07-29T11:05:15;29.10;35.10
17659;DHT22;8948;51.534;8.262;2022-07-29T11:10:20;30.10;35.90
17659;DHT22;8948;51.534;8.262;2022-07-29T11:15:22;30.40;33.80
17659;DHT22;8948;51.534;8.262;2022-07-29T11:20:43;30.10;35.00
17659;DHT22;8948;51.534;8.262;2022-07-29T11:31:10;30.00;35.80
17659;DHT22;8948;51.534;8.262;2022-07-29T11:36:13;29.70;34.50
17659;DHT22;8948;51.534;8.262;2022-07-29T11:41:21;29.00;36.30
17659;DHT22;8948;51.534;8.262;2022-07-29T11:46:48;28.50;37.00
17659;DHT22;8948;51.534;8.262;2022-07-29T11:51:56;28.50;36.50
17659;DHT22;8948;51.534;8.262;2022-07-29T11:56:58;28.60;37.10
17659;DHT22;8948;51.534;8.262;2022-07-29T12:01:59;29.20;38.60
17659;DHT22;8948;51.534;8.262;2022-07-29T12:07:00;29.10;36.10
17659;DHT22;8948;51.534;8.262;2022-07-29T12:12:01;28.80;36.70
17659;DHT22;8948;51.534;8.262;2022-07-29T12:17:01;28.90;37.90
17659;DHT22;8948;51.534;8.262;2022-07-29T12:22:02;29.10;37.10
17659;DHT22;8948;51.534;8.262;2022-07-29T12:27:03;30.40;37.00
17659;DHT22;8948;51.534;8.262;2022-07-29T12:32:04;31.30;35.80
17659;DHT22;8948;51.534;8.262;2022-07-29T12:37:06;30.80;34.50
17659;DHT22;8948;51.534;8.262;2022-07-29T12:42:14;30.80;35.80
17659;DHT22;8948;51.534;8.262;2022-07-29T12:47:16;31.20;35.40
17659;DHT22;8948;51.534;8.262;2022-07-29T12:52:28;31.20;34.90
17659;DHT22;8948;51.534;8.262;2022-07-29T12:57:30;30.80;35.30
17659;DHT22;8948;51.534;8.262;2022-07-29T13:02:31;30.40;36.70
17659;DHT22;8948;51.534;8.262;2022-07-29T13:07:33;30.40;36.10
17659;DHT22;8948;51.534;8.262;2022-07-29T13:12:37;30.00;36.40
17659;DHT22;8948;51.534;8.262;2022-07-29T13:17:42;29.60;37.10
17659;DHT22;8948;51.534;8.262;2022-07-29T13:22:47;29.30;37.80
17659;DHT22;8948;51.534;8.262;2022-07-29T13:27:48;29.10;37.50
17659;DHT22;8948;51.534;8.262;2022-07-29T13:32:51;28.90;37.90
17659;DHT22;8948;51.534;8.262;2022-07-29T13:37:52;28.90;38.40
17659;DHT22;8948;51.534;8.262;2022-07-29T13:42:53;28.90;38.20
17659;DHT22;8948;51.534;8.262;2022-07-29T13:47:53;29.10;38.70
17659;DHT22;8948;51.534;8.262;2022-07-29T13:52:54;29.60;37.50
17659;DHT22;8948;51.534;8.262;2022-07-29T13:57:54;30.20;37.20
17659;DHT22;8948;51.534;8.262;2022-07-29T14:02:55;30.70;36.30
17659;DHT22;8948;51.534;8.262;2022-07-29T14:07:56;30.70;35.50
17659;DHT22;8948;51.534;8.262;2022-07-29T14:12:56;30.50;36.50
17659;DHT22;8948;51.534;8.262;2022-07-29T14:17:57;30.10;36.70
17659;DHT22;8948;51.534;8.262;2022-07-29T14:22:57;30.00;36.70
17659;DHT22;8948;51.534;8.262;2022-07-29T14:27:58;30.00;36.80
17659;DHT22;8948;51.534;8.262;2022-07-29T14:32:59;30.40;36.40
17659;DHT22;8948;51.534;8.262;2022-07-29T14:37:59;30.10;36.80
17659;DHT22;8948;51.534;8.262;2022-07-29T14:43:00;30.30;36.40
17659;DHT22;8948;51.534;8.262;2022-07-29T14:48:01;31.10;35.60
17659;DHT22;8948;51.534;8.262;2022-07-29T14:53:02;31.40;35.70
17659;DHT22;8948;51.534;8.262;2022-07-29T14:58:03;30.80;35.50
17659;DHT22;8948;51.534;8.262;2022-07-29T15:03:04;30.20;36.50
17659;DHT22;8948;51.534;8.262;2022-07-29T15:08:05;30.10;36.50
17659;DHT22;8948;51.534;8.262;2022-07-29T15:13:08;31.00;35.30
17659;DHT22;8948;51.534;8.262;2022-07-29T15:18:08;31.20;35.20
17659;DHT22;8948;51.534;8.262;2022-07-29T15:23:09;31.40;35.20
17659;DHT22;8948;51.534;8.262;2022-07-29T15:28:11;31.60;34.80
17659;DHT22;8948;51.534;8.262;2022-07-29T15:33:12;31.80;34.70
17659;DHT22;8948;51.534;8.262;2022-07-29T15:38:12;31.70;34.10
17659;DHT22;8948;51.534;8.262;2022-07-29T15:43:13;31.00;35.00
17659;DHT22;8948;51.534;8.262;2022-07-29T15:48:13;30.20;35.50
17659;DHT22;8948;51.534;8.262;2022-07-29T15:53:14;30.00;35.20
17659;DHT22;8948;51.534;8.262;2022-07-29T15:58:14;29.80;36.30
17659;DHT22;8948;51.534;8.262;2022-07-29T16:03:15;29.40;36.10
17659;DHT22;8948;51.534;8.262;2022-07-29T16:08:16;29.40;36.10
17659;DHT22;8948;51.534;8.262;2022-07-29T16:13:16;29.50;35.90
17659;DHT22;8948;51.534;8.262;2022-07-29T16:18:17;29.60;35.90
17659;DHT22;8948;51.534;8.262;2022-07-29T16:23:17;29.60;35.30
17659;DHT22;8948;51.534;8.262;2022-07-29T16:28:18;29.60;35.60
17659;DHT22;8948;51.534;8.262;2022-07-29T16:33:19;29.70;35.70
17659;DHT22;8948;51.534;8.262;2022-07-29T16:38:19;29.80;36.00
17659;DHT22;8948;51.534;8.262;2022-07-29T16:43:20;29.40;35.70
17659;DHT22;8948;51.534;8.262;2022-07-29T16:48:21;29.00;36.20
17659;DHT22;8948;51.534;8.262;2022-07-29T16:53:21;28.40;36.30
17659;DHT22;8948;51.534;8.262;2022-07-29T16:58:22;28.30;36.70
17659;DHT22;8948;51.534;8.262;2022-07-29T17:03:22;28.40;36.80
17659;DHT22;8948;51.534;8.262;2022-07-29T17:08:23;28.10;36.90
17659;DHT22;8948;51.534;8.262;2022-07-29T17:13:24;27.80;37.00
17659;DHT22;8948;51.534;8.262;2022-07-29T17:18:24;27.70;37.40
17659;DHT22;8948;51.534;8.262;2022-07-29T17:23:25;27.70;37.50
17659;DHT22;8948;51.534;8.262;2022-07-29T17:28:25;27.70;37.50
17659;DHT22;8948;51.534;8.262;2022-07-29T17:33:26;27.70;37.50
17659;DHT22;8948;51.534;8.262;2022-07-29T17:38:26;27.70;37.30
17659;DHT22;8948;51.534;8.262;2022-07-29T17:43:27;27.70;37.40
17659;DHT22;8948;51.534;8.262;2022-07-29T17:48:28;27.60;37.50
17659;DHT22;8948;51.534;8.262;2022-07-29T17:53:28;27.60;38.00
17659;DHT22;8948;51.534;8.262;2022-07-29T17:58:29;27.80;37.50
17659;DHT22;8948;51.534;8.262;2022-07-29T18:03:30;27.80;37.40
17659;DHT22;8948;51.534;8.262;2022-07-29T18:08:31;27.70;37.90
17659;DHT22;8948;51.534;8.262;2022-07-29T18:13:32;27.50;38.00
17659;DHT22;8948;51.534;8.262;2022-07-29T18:18:33;27.40;38.10
17659;DHT22;8948;51.534;8.262;2022-07-29T18:23:34;27.10;38.30
17659;DHT22;8948;51.534;8.262;2022-07-29T18:28:35;26.90;38.90
17659;DHT22;8948;51.534;8.262;2022-07-29T18:33:35;26.80;39.40
17659;DHT22;8948;51.534;8.262;2022-07-29T18:38:36;26.80;39.00
17659;DHT22;8948;51.534;8.262;2022-07-29T18:43:37;26.70;39.50
17659;DHT22;8948;51.534;8.262;2022-07-29T18:48:37;26.60;39.00
17659;DHT22;8948;51.534;8.262;2022-07-29T18:53:38;26.60;39.40
17659;DHT22;8948;51.534;8.262;2022-07-29T18:58:39;26.40;39.70
17659;DHT22;8948;51.534;8.262;2022-07-29T19:03:39;26.30;39.90
17659;DHT22;8948;51.534;8.262;2022-07-29T19:08:40;26.30;40.30
17659;DHT22;8948;51.534;8.262;2022-07-29T19:13:41;26.30;40.20
17659;DHT22;8948;51.534;8.262;2022-07-29T19:18:41;26.20;40.20
17659;DHT22;8948;51.534;8.262;2022-07-29T19:23:44;26.00;42.00
17659;DHT22;8948;51.534;8.262;2022-07-29T19:28:46;25.80;43.20
17659;DHT22;8948;51.534;8.262;2022-07-29T19:33:46;25.40;45.60
17659;DHT22;8948;51.534;8.262;2022-07-29T19:38:47;25.20;46.10
17659;DHT22;8948;51.534;8.262;2022-07-29T19:43:48;25.10;46.50
17659;DHT22;8948;51.534;8.262;2022-07-29T19:48:49;24.90;47.30
17659;DHT22;8948;51.534;8.262;2022-07-29T19:53:50;24.70;48.20
17659;DHT22;8948;51.534;8.262;2022-07-29T19:58:51;24.50;48.60
17659;DHT22;8948;51.534;8.262;2022-07-29T20:03:51;24.50;49.30
17659;DHT22;8948;51.534;8.262;2022-07-29T20:08:53;24.40;49.40
17659;DHT22;8948;51.534;8.262;2022-07-29T20:13:54;24.30;50.00
17659;DHT22;8948;51.534;8.262;2022-07-29T20:18:54;24.20;50.30
17659;DHT22;8948;51.534;8.262;2022-07-29T20:23:55;24.10;50.20
17659;DHT22;8948;51.534;8.262;2022-07-29T20:28:59;24.00;50.60
17659;DHT22;8948;51.534;8.262;2022-07-29T20:34:00;23.90;50.00
17659;DHT22;8948;51.534;8.262;2022-07-29T20:39:01;23.60;51.10
17659;DHT22;8948;51.534;8.262;2022-07-29T20:44:03;23.20;52.10
17659;DHT22;8948;51.534;8.262;2022-07-29T20:49:04;23.10;52.60
17659;DHT22;8948;51.534;8.262;2022-07-29T20:54:04;23.10;52.40
17659;DHT22;8948;51.534;8.262;2022-07-29T20:59:06;23.00;52.50
17659;DHT22;8948;51.534;8.262;2022-07-29T21:04:07;22.90;52.50
17659;DHT22;8948;51.534;8.262;2022-07-29T21:09:07;22.80;52.70
17659;DHT22;8948;51.534;8.262;2022-07-29T21:14:08;22.70;53.20
17659;DHT22;8948;51.534;8.262;2022-07-29T21:19:08;22.50;53.90
17659;DHT22;8948;51.534;8.262;2022-07-29T21:24:09;22.50;53.60
17659;DHT22;8948;51.534;8.262;2022-07-29T21:29:09;22.40;53.70
17659;DHT22;8948;51.534;8.262;2022-07-29T21:34:10;22.30;54.70
17659;DHT22;8948;51.534;8.262;2022-07-29T21:39:11;22.40;54.90
17659;DHT22;8948;51.534;8.262;2022-07-29T21:44:11;22.50;54.80
17659;DHT22;8948;51.534;8.262;2022-07-29T21:49:12;22.50;55.30
17659;DHT22;8948;51.534;8.262;2022-07-29T21:54:12;22.40;55.80
17659;DHT22;8948;51.534;8.262;2022-07-29T21:59:13;22.40;55.60
17659;DHT22;8948;51.534;8.262;2022-07-29T22:04:13;22.30;55.90
17659;DHT22;8948;51.534;8.262;2022-07-29T22:09:14;22.20;56.30
17659;DHT22;8948;51.534;8.262;2022-07-29T22:14:15;22.10;56.50
17659;DHT22;8948;51.534;8.262;2022-07-29T22:19:17;22.10;56.30
17659;DHT22;8948;51.534;8.262;2022-07-29T22:24:18;22.00;56.20
17659;DHT22;8948;51.534;8.262;2022-07-29T22:29:18;21.90;56.70
17659;DHT22;8948;51.534;8.262;2022-07-29T22:34:19;21.90;57.00
17659;DHT22;8948;51.534;8.262;2022-07-29T22:39:19;21.80;57.30
17659;DHT22;8948;51.534;8.262;2022-07-29T22:44:20;21.80;57.60
17659;DHT22;8948;51.534;8.262;2022-07-29T22:49:21;21.80;57.90
17659;DHT22;8948;51.534;8.262;2022-07-29T22:54:21;21.80;57.80
17659;DHT22;8948;51.534;8.262;2022-07-29T22:59:22;21.80;58.00
17659;DHT22;8948;51.534;8.262;2022-07-29T23:04:22;21.70;58.40
17659;DHT22;8948;51.534;8.262;2022-07-29T23:09:23;21.60;58.20
17659;DHT22;8948;51.534;8.262;2022-07-29T23:14:24;21.50;58.70
17659;DHT22;8948;51.534;8.262;2022-07-29T23:19:24;21.40;59.30
17659;DHT22;8948;51.534;8.262;2022-07-29T23:24:25;21.20;59.30
17659;DHT22;8948;51.534;8.262;2022-07-29T23:29:25;21.10;59.10
17659;DHT22;8948;51.534;8.262;2022-07-29T23:34:26;21.20;58.70
17659;DHT22;8948;51.534;8.262;2022-07-29T23:39:26;21.20;59.50
17659;DHT22;8948;51.534;8.262;2022-07-29T23:44:27;21.20;59.60
17659;DHT22;8948;51.534;8.262;2022-07-29T23:49:28;21.10;58.90
17659;DHT22;8948;51.534;8.262;2022-07-29T23:54:28;21.00;58.80
17659;DHT22;8948;51.534;8.262;2022-07-29T23:59:29;20.80;58.90
